createdAt,value
2019-02-27T00:00:55.535Z,39.03
2019-02-27T00:03:28.851Z,40.67
2019-02-27T00:05:56.174Z,40.87
2019-02-27T00:08:26.941Z,41.73
2019-02-27T00:10:56.042Z,40.77
2019-02-27T00:13:25.483Z,40.73
2019-02-27T00:15:54.967Z,40.90
2019-02-27T00:18:24.506Z,41.23
2019-02-27T00:20:53.773Z,41.23
2019-02-27T00:23:24.067Z,43.10
2019-02-27T00:25:53.834Z,41.47
2019-02-27T00:28:23.368Z,43.53
2019-02-27T00:30:53.151Z,42.47
2019-02-27T00:33:25.049Z,42.30
2019-02-27T00:35:53.590Z,40.97
2019-02-27T00:38:25.046Z,40.87
2019-02-27T00:40:53.812Z,42.10
2019-02-27T00:43:22.859Z,42.10
2019-02-27T00:45:52.046Z,41.40
2019-02-27T00:48:21.062Z,39.47
2019-02-27T00:50:50.156Z,41.03
2019-02-27T00:53:21.929Z,39.33
2019-02-27T00:55:50.968Z,38.60
2019-02-27T00:58:20.010Z,37.60
2019-02-27T01:00:49.552Z,36.03
2019-02-27T01:03:18.575Z,38.97
2019-02-27T01:05:47.798Z,36.33
2019-02-27T01:08:16.819Z,38.10
2019-02-27T01:10:45.926Z,37.97
2019-02-27T01:13:15.511Z,39.90
2019-02-27T01:15:44.912Z,40.40
2019-02-27T01:18:13.944Z,36.87
2019-02-27T01:20:45.841Z,38.47
2019-02-27T01:23:13.734Z,38.23
2019-02-27T01:25:43.821Z,39.20
2019-02-27T01:28:12.917Z,39.63
2019-02-27T01:30:42.338Z,37.90
2019-02-27T01:33:11.413Z,41.63
2019-02-27T01:35:41.094Z,40.00
2019-02-27T01:38:10.162Z,40.97
2019-02-27T01:40:39.303Z,40.67
2019-02-27T01:43:09.079Z,40.60
2019-02-27T01:45:38.147Z,38.30
2019-02-27T01:48:09.213Z,37.03
2019-02-27T01:50:40.996Z,37.37
2019-02-27T01:53:10.558Z,37.60
2019-02-27T01:55:40.356Z,36.37
2019-02-27T01:58:10.244Z,36.20
2019-02-27T02:00:40.065Z,36.20
2019-02-27T02:03:11.152Z,37.23
2019-02-27T02:05:40.373Z,37.17
2019-02-27T02:08:13.510Z,34.93
2019-02-27T02:10:40.422Z,36.37
2019-02-27T02:13:32.206Z,35.00
2019-02-27T02:16:28.931Z,34.93
2019-02-27T02:19:33.326Z,36.43
2019-02-27T02:22:34.732Z,34.97
2019-02-27T02:26:06.043Z,35.47
2019-02-27T02:29:01.995Z,36.73
2019-02-27T02:31:48.308Z,34.03
2019-02-27T02:34:45.610Z,33.17
2019-02-27T02:37:40.252Z,32.73
2019-02-27T02:40:46.397Z,34.20
2019-02-27T02:43:51.663Z,32.07
2019-02-27T02:46:49.311Z,31.10
2019-02-27T02:49:50.150Z,31.27
2019-02-27T02:52:55.879Z,30.97
2019-02-27T02:56:03.126Z,31.57
2019-02-27T02:59:12.095Z,32.03
2019-02-27T03:01:50.214Z,28.43
2019-02-27T03:05:06.108Z,29.37
2019-02-27T03:08:12.772Z,26.47
2019-02-27T03:11:03.391Z,29.17
2019-02-27T03:13:47.767Z,29.57
2019-02-27T03:16:54.622Z,30.27
2019-02-27T03:19:52.557Z,31.00
2019-02-27T03:22:40.493Z,29.03
2019-02-27T03:25:24.122Z,28.50
2019-02-27T03:28:15.600Z,28.60
2019-02-27T03:31:15.704Z,27.07
2019-02-27T03:34:05.878Z,26.47
2019-02-27T03:36:59.324Z,26.73
2019-02-27T03:39:54.331Z,24.40
2019-02-27T03:42:50.996Z,25.73
2019-02-27T03:45:58.769Z,25.30
2019-02-27T03:48:53.010Z,24.83
2019-02-27T03:51:47.190Z,23.70
2019-02-27T03:54:48.415Z,25.13
2019-02-27T03:57:42.499Z,24.27
2019-02-27T04:00:36.976Z,24.60
2019-02-27T04:03:44.374Z,24.37
2019-02-27T04:07:00.646Z,23.50
2019-02-27T04:09:29.719Z,22.80
2019-02-27T04:11:59.022Z,23.27
2019-02-27T04:14:33.026Z,24.33
2019-02-27T04:17:06.928Z,23.43
2019-02-27T04:19:38.803Z,22.97
2019-02-27T04:22:05.649Z,22.30
2019-02-27T04:24:34.643Z,22.80
2019-02-27T04:27:04.049Z,23.27
2019-02-27T04:29:33.109Z,23.17
2019-02-27T04:32:02.236Z,23.33
2019-02-27T04:34:33.242Z,22.70
2019-02-27T04:37:02.210Z,23.63
2019-02-27T04:39:31.592Z,24.47
2019-02-27T04:42:00.730Z,24.80
2019-02-27T04:44:29.884Z,22.83
2019-02-27T04:46:59.572Z,23.10
2019-02-27T04:49:28.530Z,23.93
2019-02-27T04:51:57.716Z,23.43
2019-02-27T04:54:27.252Z,22.83
2019-02-27T04:56:57.621Z,21.87
2019-02-27T04:59:27.186Z,23.70
2019-02-27T05:01:56.287Z,21.03
2019-02-27T05:04:25.775Z,23.43
2019-02-27T05:06:54.732Z,21.90
2019-02-27T05:09:24.286Z,24.47
2019-02-27T05:11:53.436Z,22.03
2019-02-27T05:14:24.895Z,22.27
2019-02-27T05:16:53.206Z,22.97
2019-02-27T05:19:22.648Z,22.03
2019-02-27T05:21:52.444Z,22.70
2019-02-27T05:24:22.830Z,22.23
2019-02-27T05:26:51.839Z,21.93
2019-02-27T05:29:21.680Z,24.50
2019-02-27T05:31:53.310Z,24.27
2019-02-27T05:34:21.534Z,23.17
2019-02-27T05:36:50.703Z,23.57
2019-02-27T05:39:20.283Z,24.50
2019-02-27T05:41:49.438Z,23.97
2019-02-27T05:44:21.343Z,23.53
2019-02-27T05:46:49.930Z,22.67
2019-02-27T05:49:19.225Z,23.57
2019-02-27T05:51:48.219Z,21.97
2019-02-27T05:54:17.251Z,22.23
2019-02-27T05:56:47.133Z,21.83
2019-02-27T05:59:16.971Z,23.47
2019-02-27T06:01:46.660Z,22.33
2019-02-27T06:04:15.969Z,46.27
2019-02-27T06:06:45.659Z,26.27
2019-02-27T06:09:15.298Z,25.07
2019-02-27T06:11:49.426Z,23.07
2019-02-27T06:14:21.145Z,22.80
2019-02-27T06:16:49.572Z,22.77
2019-02-27T06:19:18.559Z,23.17
2019-02-27T06:21:47.775Z,22.13
2019-02-27T06:24:17.239Z,22.97
2019-02-27T06:26:46.312Z,24.10
2019-02-27T06:29:15.809Z,23.17
2019-02-27T06:31:45.049Z,22.47
2019-02-27T06:34:14.182Z,23.30
2019-02-27T06:36:44.092Z,22.60
2019-02-27T06:39:13.418Z,22.23
2019-02-27T06:41:42.604Z,20.77
2019-02-27T06:44:11.728Z,23.67
2019-02-27T06:46:40.678Z,21.60
2019-02-27T06:49:09.749Z,23.17
2019-02-27T06:51:38.655Z,23.00
2019-02-27T06:54:07.929Z,23.13
2019-02-27T06:56:36.890Z,23.30
2019-02-27T06:59:06.371Z,22.57
2019-02-27T07:01:35.495Z,22.97
2019-02-27T07:04:04.784Z,21.50
2019-02-27T07:06:36.801Z,22.40
2019-02-27T07:09:11.420Z,24.07
2019-02-27T07:11:37.744Z,22.90
2019-02-27T07:14:06.848Z,22.33
2019-02-27T07:16:35.821Z,23.77
2019-02-27T07:19:04.943Z,22.80
2019-02-27T07:21:34.029Z,22.80
2019-02-27T07:24:03.135Z,22.30
2019-02-27T07:26:32.210Z,22.60
2019-02-27T07:29:01.311Z,23.33
2019-02-27T07:31:30.423Z,21.83
2019-02-27T07:33:59.734Z,21.80
2019-02-27T07:36:29.536Z,22.40
2019-02-27T07:38:58.771Z,22.37
2019-02-27T07:41:27.758Z,24.10
2019-02-27T07:43:57.268Z,23.23
2019-02-27T07:46:26.733Z,22.33
2019-02-27T07:48:56.750Z,23.27
2019-02-27T07:51:26.569Z,22.83
2019-02-27T07:53:55.771Z,22.47
2019-02-27T07:56:25.352Z,23.50
2019-02-27T07:58:54.379Z,23.53
2019-02-27T08:01:44.026Z,23.00
2019-02-27T08:04:13.271Z,23.20
2019-02-27T08:06:42.816Z,21.77
2019-02-27T08:09:12.129Z,22.47
2019-02-27T08:11:41.470Z,23.17
2019-02-27T08:14:12.806Z,23.70
2019-02-27T08:16:41.975Z,23.13
2019-02-27T08:19:11.577Z,23.60
2019-02-27T08:21:41.489Z,22.53
2019-02-27T08:24:10.667Z,24.43
2019-02-27T08:26:40.753Z,23.83
2019-02-27T08:29:18.329Z,23.00
2019-02-27T08:31:47.315Z,22.27
2019-02-27T08:34:16.866Z,24.13
2019-02-27T08:36:45.935Z,23.30
2019-02-27T08:39:15.312Z,23.07
2019-02-27T08:41:44.247Z,23.23
2019-02-27T08:44:13.342Z,24.37
2019-02-27T08:46:42.558Z,23.57
2019-02-27T08:49:12.344Z,24.20
2019-02-27T08:51:42.149Z,25.83
2019-02-27T08:54:12.555Z,24.13
2019-02-27T08:56:44.042Z,24.33
2019-02-27T08:59:12.492Z,24.03
2019-02-27T09:01:43.123Z,23.67
2019-02-27T09:04:12.709Z,24.83
2019-02-27T09:06:42.024Z,24.53
2019-02-27T09:09:11.239Z,24.60
2019-02-27T09:11:40.751Z,23.83
2019-02-27T09:14:11.958Z,25.93
2019-02-27T09:16:41.091Z,23.47
2019-02-27T09:21:41.937Z,24.70
2019-02-27T09:24:11.656Z,24.03
2019-02-27T09:26:42.367Z,23.67
2019-02-27T09:29:11.890Z,24.70
2019-02-27T09:31:50.728Z,24.60
2019-02-27T09:35:01.479Z,22.97
2019-02-27T09:37:30.729Z,23.53
2019-02-27T09:40:04.482Z,23.03
2019-02-27T09:42:30.672Z,23.80
2019-02-27T09:44:59.722Z,23.17
2019-02-27T09:47:29.275Z,22.40
2019-02-27T09:49:58.380Z,22.27
2019-02-27T09:52:27.823Z,21.07
2019-02-27T09:54:58.348Z,22.57
2019-02-27T09:57:27.944Z,21.40
2019-02-27T09:59:57.067Z,22.33
2019-02-27T10:02:26.076Z,21.70
2019-02-27T10:04:55.327Z,16.47
2019-02-27T10:07:25.024Z,19.70
2019-02-27T10:09:54.393Z,19.07
2019-02-27T10:12:27.086Z,11.53
2019-02-27T10:14:54.327Z,12.97
2019-02-27T10:17:24.499Z,19.90
2019-02-27T10:20:01.287Z,15.87
2019-02-27T10:22:27.639Z,12.23
2019-02-27T10:24:56.626Z,13.50
2019-02-27T10:27:28.689Z,11.80
2019-02-27T10:29:56.760Z,11.77
2019-02-27T10:32:25.947Z,12.87
2019-02-27T10:34:56.188Z,12.80
2019-02-27T10:37:27.334Z,13.47
2019-02-27T10:39:56.527Z,13.40
2019-02-27T10:42:25.588Z,13.23
2019-02-27T10:44:56.132Z,11.07
2019-02-27T10:47:25.235Z,13.77
2019-02-27T10:49:54.313Z,12.77
2019-02-27T10:52:24.408Z,14.63
2019-02-27T10:54:54.207Z,14.73
2019-02-27T10:57:23.360Z,13.50
2019-02-27T10:59:52.908Z,13.57
2019-02-27T11:02:23.581Z,15.40
2019-02-27T11:04:52.904Z,15.70
2019-02-27T11:07:22.012Z,14.63
2019-02-27T11:09:51.135Z,15.30
2019-02-27T11:12:20.198Z,15.80
2019-02-27T11:14:49.290Z,15.50
2019-02-27T11:17:18.331Z,16.47
2019-02-27T11:19:47.755Z,17.67
2019-02-27T11:22:16.803Z,15.30
2019-02-27T11:24:49.296Z,16.90
2019-02-27T11:27:17.421Z,16.63
2019-02-27T11:29:46.865Z,15.67
2019-02-27T11:32:16.085Z,16.53
2019-02-27T11:34:45.533Z,15.57
2019-02-27T11:37:16.480Z,16.67
2019-02-27T11:39:46.267Z,17.33
2019-02-27T11:42:15.877Z,16.20
2019-02-27T11:44:49.398Z,16.00
2019-02-27T11:47:16.154Z,17.83
2019-02-27T11:49:45.429Z,18.20
2019-02-27T11:52:14.585Z,17.43
2019-02-27T11:54:43.927Z,18.00
2019-02-27T11:57:13.165Z,17.97
2019-02-27T11:59:46.716Z,17.27
2019-02-27T12:02:13.215Z,18.53
2019-02-27T12:04:54.380Z,18.27
2019-02-27T12:07:18.196Z,17.80
2019-02-27T12:09:47.380Z,18.47
2019-02-27T12:12:17.055Z,18.80
2019-02-27T12:14:46.431Z,17.70
2019-02-27T12:17:15.645Z,18.90
2019-02-27T12:19:45.329Z,18.80
2019-02-27T12:22:14.531Z,20.57
2019-02-27T12:24:43.552Z,19.70
2019-02-27T12:27:25.745Z,19.80
2019-02-27T12:29:43.984Z,18.67
2019-02-27T12:32:13.066Z,19.93
2019-02-27T12:34:42.345Z,19.57
2019-02-27T12:37:23.752Z,20.87
2019-02-27T12:39:43.571Z,20.00
2019-02-27T12:42:13.380Z,21.27
2019-02-27T12:44:42.701Z,18.90
2019-02-27T12:47:11.883Z,21.37
2019-02-27T12:49:41.429Z,19.75
2019-02-27T12:52:12.057Z,18.77
2019-02-27T12:55:01.799Z,19.17
2019-02-27T12:57:31.899Z,18.50
2019-02-27T13:00:05.756Z,20.47
2019-02-27T13:02:35.888Z,21.57
2019-02-27T13:05:06.176Z,21.70
2019-02-27T13:07:35.482Z,21.80
2019-02-27T13:10:06.324Z,20.27
2019-02-27T13:12:37.237Z,20.63
2019-02-27T13:15:07.531Z,22.13
2019-02-27T13:17:37.062Z,22.03
2019-02-27T13:20:11.742Z,22.43
2019-02-27T13:22:40.101Z,22.93
2019-02-27T13:25:40.302Z,23.23
2019-02-27T13:28:09.363Z,22.40
2019-02-27T13:30:41.328Z,22.40
2019-02-27T13:33:09.551Z,24.63
2019-02-27T13:35:39.276Z,22.20
2019-02-27T13:38:08.324Z,22.30
2019-02-27T13:40:37.547Z,22.37
2019-02-27T13:43:06.595Z,23.83
2019-02-27T13:45:36.008Z,22.53
2019-02-27T13:48:06.112Z,22.87
2019-02-27T13:50:35.484Z,23.73
2019-02-27T13:53:04.655Z,22.90
2019-02-27T13:55:34.131Z,23.20
2019-02-27T13:58:03.707Z,23.20
2019-02-27T14:00:38.042Z,21.97
2019-02-27T14:03:12.612Z,22.97
2019-02-27T14:05:44.495Z,24.43
2019-02-27T14:08:13.831Z,24.50
2019-02-27T14:10:43.408Z,25.80
2019-02-27T14:13:12.601Z,24.93
2019-02-27T14:15:42.016Z,23.83
2019-02-27T14:18:13.475Z,23.17
2019-02-27T14:20:41.963Z,24.03
2019-02-27T14:23:12.001Z,23.87
2019-02-27T14:25:41.629Z,24.10
2019-02-27T14:28:10.601Z,25.90
2019-02-27T14:30:42.439Z,25.53
2019-02-27T14:33:11.479Z,26.27
2019-02-27T14:35:40.667Z,27.90
2019-02-27T14:38:09.634Z,26.90
2019-02-27T14:40:41.185Z,26.87
2019-02-27T14:43:10.719Z,28.07
2019-02-27T14:45:40.930Z,27.03
2019-02-27T14:48:10.137Z,24.13
2019-02-27T14:50:39.830Z,23.80
2019-02-27T14:53:08.963Z,23.93
2019-02-27T14:55:38.045Z,23.90
2019-02-27T14:58:07.194Z,23.50
2019-02-27T15:00:40.004Z,23.77
2019-02-27T15:03:07.081Z,25.10
2019-02-27T15:05:36.996Z,24.20
2019-02-27T15:08:07.185Z,24.70
2019-02-27T15:10:40.230Z,23.37
2019-02-27T15:13:07.167Z,24.13
2019-02-27T15:15:36.272Z,24.10
2019-02-27T15:18:05.695Z,22.20
2019-02-27T15:20:34.943Z,23.83
2019-02-27T15:23:05.830Z,23.00
2019-02-27T15:25:34.995Z,22.57
2019-02-27T15:28:04.107Z,23.57
2019-02-27T15:30:33.191Z,24.43
2019-02-27T15:33:05.028Z,23.10
2019-02-27T15:35:33.040Z,25.00
2019-02-27T15:38:02.099Z,24.63
2019-02-27T15:40:39.854Z,23.80
2019-02-27T15:43:11.538Z,23.47
2019-02-27T15:45:47.280Z,23.53
2019-02-27T15:48:11.223Z,24.67
2019-02-27T15:50:40.422Z,24.77
2019-02-27T15:53:14.567Z,23.80
2019-02-27T15:55:41.148Z,22.13
2019-02-27T15:58:10.144Z,23.83
2019-02-27T16:00:39.311Z,24.47
2019-02-27T16:03:11.835Z,23.20
2019-02-27T16:05:40.128Z,24.33
2019-02-27T16:08:09.324Z,24.73
2019-02-27T16:10:42.598Z,25.17
2019-02-27T16:13:09.136Z,25.33
2019-02-27T16:15:38.187Z,24.10
2019-02-27T16:18:07.732Z,25.17
2019-02-27T16:20:37.085Z,25.67
2019-02-27T16:23:06.275Z,25.37
2019-02-27T16:25:35.423Z,24.03
2019-02-27T16:28:04.495Z,25.20
2019-02-27T16:30:34.297Z,25.03
2019-02-27T16:33:03.480Z,24.43
2019-02-27T16:35:33.096Z,26.47
2019-02-27T16:38:02.184Z,26.10
2019-02-27T16:40:31.394Z,23.30
2019-02-27T16:43:00.455Z,27.37
2019-02-27T16:45:33.870Z,26.93
2019-02-27T16:48:00.951Z,25.97
2019-02-27T16:50:31.515Z,27.97
2019-02-27T16:53:00.492Z,29.67
2019-02-27T16:55:29.672Z,26.80
2019-02-27T16:57:58.788Z,27.37
2019-02-27T17:00:28.984Z,27.93
2019-02-27T17:02:58.843Z,28.47
2019-02-27T17:05:28.042Z,28.17
2019-02-27T17:08:02.260Z,26.03
2019-02-27T17:10:29.983Z,29.73
2019-02-27T17:12:59.415Z,27.53
2019-02-27T17:15:31.763Z,29.17
2019-02-27T17:17:59.438Z,27.57
2019-02-27T17:20:28.596Z,28.13
2019-02-27T17:22:57.696Z,28.60
2019-02-27T17:25:29.955Z,27.27
2019-02-27T17:27:57.565Z,26.70
2019-02-27T17:30:28.583Z,28.30
2019-02-27T17:32:57.683Z,27.47
2019-02-27T17:35:26.768Z,28.77
2019-02-27T17:37:55.845Z,28.60
2019-02-27T17:40:24.975Z,27.97
2019-02-27T17:42:54.448Z,28.50
2019-02-27T17:45:23.910Z,29.13
2019-02-27T17:47:52.980Z,27.83
2019-02-27T17:50:22.043Z,26.77
2019-02-27T17:52:51.137Z,27.23
2019-02-27T17:55:20.208Z,29.20
2019-02-27T17:57:49.280Z,31.37
2019-02-27T18:00:23.891Z,31.90
2019-02-27T18:03:11.995Z,27.83
2019-02-27T18:05:41.085Z,29.20
2019-02-27T18:08:10.101Z,29.07
2019-02-27T18:10:39.174Z,30.13
2019-02-27T18:13:11.098Z,30.17
2019-02-27T18:15:40.135Z,29.27
2019-02-27T18:18:10.600Z,28.03
2019-02-27T18:20:40.200Z,29.70
2019-02-27T18:23:09.350Z,27.97
2019-02-27T18:25:41.063Z,29.37
2019-02-27T18:28:09.604Z,29.33
2019-02-27T18:30:38.677Z,31.27
2019-02-27T18:33:07.755Z,28.80
2019-02-27T18:35:36.914Z,28.33
2019-02-27T18:38:06.458Z,31.87
2019-02-27T18:40:35.563Z,29.70
2019-02-27T18:43:04.670Z,30.30
2019-02-27T18:45:33.716Z,30.90
2019-02-27T18:48:02.719Z,30.37
2019-02-27T18:50:31.782Z,28.90
2019-02-27T18:53:00.855Z,30.67
2019-02-27T18:55:31.310Z,33.27
2019-02-27T18:58:00.582Z,29.80
2019-02-27T19:00:29.951Z,30.33
2019-02-27T19:02:59.203Z,28.53
2019-02-27T19:05:28.279Z,29.60
2019-02-27T19:07:57.397Z,32.03
2019-02-27T19:10:26.532Z,32.73
2019-02-27T19:12:55.644Z,30.43
2019-02-27T19:15:24.723Z,31.27
2019-02-27T19:17:54.419Z,33.53
2019-02-27T19:20:25.931Z,31.90
2019-02-27T19:22:55.138Z,31.63
2019-02-27T19:25:24.881Z,33.10
2019-02-27T19:27:53.956Z,33.70
2019-02-27T19:30:23.343Z,29.40
2019-02-27T19:32:52.399Z,33.47
2019-02-27T19:35:22.448Z,35.20
2019-02-27T19:37:51.999Z,34.10
2019-02-27T19:40:23.572Z,33.23
2019-02-27T19:42:54.379Z,32.80
2019-02-27T19:45:23.812Z,34.67
2019-02-27T19:47:55.603Z,33.67
2019-02-27T19:50:23.957Z,32.23
2019-02-27T19:52:53.137Z,35.40
2019-02-27T19:55:26.495Z,34.20
2019-02-27T19:57:53.750Z,34.27
2019-02-27T20:00:24.788Z,34.23
2019-02-27T20:02:56.981Z,32.87
2019-02-27T20:05:25.705Z,30.07
2019-02-27T20:07:55.081Z,31.03
2019-02-27T20:10:29.061Z,29.30
2019-02-27T20:12:55.603Z,32.80
2019-02-27T20:15:24.812Z,33.23
2019-02-27T20:17:54.287Z,32.30
2019-02-27T20:20:24.514Z,35.80
2019-02-27T20:22:54.823Z,33.63
2019-02-27T20:25:24.635Z,34.73
2019-02-27T20:27:53.899Z,33.60
2019-02-27T20:30:23.439Z,36.60
2019-02-27T20:32:52.527Z,35.13
2019-02-27T20:35:21.917Z,35.33
2019-02-27T20:37:51.027Z,35.00
2019-02-27T20:40:20.395Z,36.43
2019-02-27T20:42:53.737Z,38.70
2019-02-27T20:45:40.013Z,38.90
2019-02-27T20:48:10.139Z,39.07
2019-02-27T20:50:41.143Z,40.70
2019-02-27T20:53:10.575Z,39.03
2019-02-27T20:55:42.039Z,39.93
2019-02-27T20:58:16.211Z,39.83
2019-02-27T21:00:41.963Z,40.93
2019-02-27T21:03:11.341Z,39.90
2019-02-27T21:05:41.850Z,39.97
2019-02-27T21:08:10.991Z,38.47
2019-02-27T21:10:40.102Z,39.60
2019-02-27T21:13:09.175Z,38.00
2019-02-27T21:15:38.277Z,37.90
2019-02-27T21:18:07.348Z,37.10
2019-02-27T21:20:36.431Z,37.67
2019-02-27T21:23:05.739Z,37.60
2019-02-27T21:25:34.683Z,37.40
2019-02-27T21:28:06.608Z,36.00
2019-02-27T21:30:34.600Z,36.13
2019-02-27T21:33:03.690Z,36.47
2019-02-27T21:35:32.761Z,36.27
2019-02-27T21:38:01.781Z,37.03
2019-02-27T21:40:33.418Z,37.67
2019-02-27T21:43:01.668Z,37.03
2019-02-27T21:45:31.118Z,39.57
2019-02-27T21:48:00.067Z,36.53
2019-02-27T21:50:29.181Z,36.73
2019-02-27T21:52:58.212Z,38.20
2019-02-27T21:55:27.255Z,35.53
2019-02-27T21:57:57.999Z,37.23
2019-02-27T22:00:28.155Z,36.07
2019-02-27T22:02:57.225Z,36.10
2019-02-27T22:05:26.528Z,34.07
2019-02-27T22:07:55.636Z,35.63
2019-02-27T22:10:24.690Z,33.07
2019-02-27T22:12:53.735Z,34.63
2019-02-27T22:15:24.903Z,33.67
2019-02-27T22:17:53.923Z,32.77
2019-02-27T22:20:25.866Z,34.60
2019-02-27T22:22:53.815Z,35.53
2019-02-27T22:25:23.427Z,34.67
2019-02-27T22:27:52.767Z,34.10
2019-02-27T22:30:22.020Z,34.13
2019-02-27T22:32:51.072Z,34.33
2019-02-27T22:35:20.039Z,33.57
2019-02-27T22:37:52.328Z,31.80
2019-02-27T22:40:19.978Z,34.40
2019-02-27T22:42:49.347Z,34.60
2019-02-27T22:45:18.825Z,34.90
2019-02-27T22:47:48.039Z,36.60
2019-02-27T22:50:17.251Z,35.17
2019-02-27T22:52:46.292Z,36.17
2019-02-27T22:55:15.363Z,33.63
2019-02-27T22:57:44.451Z,34.23
2019-02-27T23:00:25.332Z,35.27
2019-02-27T23:02:55.219Z,35.13
2019-02-27T23:05:24.679Z,35.47
2019-02-27T23:07:53.720Z,34.87
2019-02-27T23:10:22.722Z,37.23
2019-02-27T23:12:51.741Z,35.50
2019-02-27T23:15:20.806Z,37.87
2019-02-27T23:17:49.802Z,35.17
2019-02-27T23:20:21.034Z,32.27
2019-02-27T23:22:49.652Z,33.60
2019-02-27T23:25:18.711Z,32.87
2019-02-27T23:27:47.895Z,36.80
2019-02-27T23:30:17.151Z,32.27
2019-02-27T23:32:46.143Z,34.57
2019-02-27T23:35:16.777Z,38.53
2019-02-27T23:37:45.944Z,42.33
2019-02-27T23:40:17.572Z,41.10
2019-02-27T23:42:45.807Z,39.87
2019-02-27T23:45:14.831Z,40.57
2019-02-27T23:47:43.907Z,42.20
2019-02-27T23:50:13.052Z,44.67
2019-02-27T23:52:42.163Z,41.30
2019-02-27T23:55:11.243Z,41.50
2019-02-27T23:57:40.370Z,43.33
